createdAt,value
2023-02-25T00:01:15.725Z,99306.69
2023-02-25T00:03:42.582Z,99212.03
2023-02-25T00:06:15.079Z,98996.63
2023-02-25T00:08:45.902Z,99314.69
2023-02-25T00:11:14.558Z,98992.34
2023-02-25T00:13:42.651Z,99305.44
2023-02-25T00:16:10.293Z,99314.84
2023-02-25T00:18:37.016Z,99320.16
2023-02-25T00:21:09.534Z,99252.56
2023-02-25T00:23:36.481Z,99320.91
2023-02-25T00:26:06.776Z,99231.66
2023-02-25T00:28:34.301Z,99219.19
2023-02-25T00:31:13.725Z,99232.00
2023-02-25T00:33:42.276Z,99309.34
2023-02-25T00:36:21.255Z,99134.44
2023-02-25T00:38:52.915Z,99346.47
2023-02-25T00:41:22.116Z,99335.03
2023-02-25T00:43:53.978Z,99349.97
2023-02-25T00:46:21.514Z,99353.38
2023-02-25T00:48:48.952Z,99361.25
2023-02-25T00:51:18.973Z,99243.34
2023-02-25T00:53:45.886Z,99219.84
2023-02-25T00:56:17.215Z,99371.50
2023-02-25T00:58:45.449Z,99408.00
2023-02-25T01:01:19.268Z,99370.53
2023-02-25T01:03:46.831Z,99380.41
2023-02-25T01:06:15.033Z,99376.19
2023-02-25T01:08:42.152Z,99377.97
2023-02-25T01:11:27.171Z,99370.47
2023-02-25T01:13:53.952Z,99377.53
2023-02-25T01:16:22.675Z,99369.59
2023-02-25T01:18:53.612Z,99373.88
2023-02-25T01:21:25.759Z,99373.34
2023-02-25T01:23:58.733Z,99368.66
2023-02-25T01:26:31.237Z,99364.13
2023-02-25T01:28:57.876Z,99347.59
2023-02-25T01:31:29.435Z,99165.47
2023-02-25T01:34:00.899Z,99382.16
2023-02-25T01:36:30.248Z,99401.78
2023-02-25T01:38:58.749Z,99392.00
2023-02-25T01:41:27.843Z,99381.84
2023-02-25T01:44:25.430Z,99388.88
2023-02-25T01:46:54.135Z,99392.25
2023-02-25T01:49:41.742Z,99398.09
2023-02-25T01:52:19.174Z,99391.72
2023-02-25T01:54:48.612Z,99384.44
2023-02-25T01:57:17.777Z,99400.56
2023-02-25T01:59:46.937Z,99395.78
2023-02-25T02:02:17.138Z,99400.66
2023-02-25T02:04:50.058Z,99412.06
2023-02-25T02:07:20.794Z,99411.81
2023-02-25T02:09:56.636Z,99413.31
2023-02-25T02:12:31.481Z,99403.31
2023-02-25T02:15:02.352Z,99401.41
2023-02-25T02:17:58.771Z,99412.78
2023-02-25T02:20:38.453Z,99415.06
2023-02-25T02:23:08.057Z,99418.25
2023-02-25T02:26:22.540Z,99415.03
2023-02-25T02:29:19.842Z,99420.88
2023-02-25T02:32:15.901Z,99422.19
2023-02-25T02:35:02.618Z,99230.75
2023-02-25T02:37:39.864Z,99378.28
2023-02-25T02:40:38.184Z,99229.31
2023-02-25T02:43:37.756Z,99438.25
2023-02-25T02:46:14.678Z,99444.16
2023-02-25T02:48:56.669Z,99371.63
2023-02-25T02:51:30.285Z,99454.22
2023-02-25T02:53:59.637Z,99460.66
2023-02-25T02:56:29.616Z,99457.97
2023-02-25T02:59:06.824Z,99456.63
2023-02-25T03:01:39.207Z,99458.22
2023-02-25T03:04:10.615Z,98865.91
2023-02-25T03:06:42.954Z,99372.28
2023-02-25T03:09:18.440Z,99464.63
2023-02-25T03:11:45.570Z,99464.31
2023-02-25T03:14:13.541Z,99470.81
2023-02-25T03:17:07.447Z,99465.19
2023-02-25T03:19:41.938Z,99434.97
2023-02-25T03:22:19.580Z,99466.19
2023-02-25T03:25:03.610Z,99476.34
2023-02-25T03:27:36.381Z,99476.03
2023-02-25T03:30:08.034Z,99484.97
2023-02-25T03:32:37.722Z,99514.50
2023-02-25T03:35:09.175Z,99487.38
2023-02-25T03:37:38.814Z,99491.94
2023-02-25T03:40:12.209Z,99493.09
2023-02-25T03:42:44.440Z,99463.63
2023-02-25T03:45:13.870Z,99497.47
2023-02-25T03:47:41.881Z,99483.56
2023-02-25T03:50:20.265Z,99505.66
2023-02-25T03:52:52.346Z,99506.16
2023-02-25T03:55:45.294Z,99511.97
2023-02-25T03:58:12.085Z,99458.03
2023-02-25T04:00:41.034Z,99478.00
2023-02-25T04:03:07.674Z,99518.47
2023-02-25T04:05:35.958Z,99524.41
2023-02-25T04:08:02.879Z,99524.97
2023-02-25T04:10:34.189Z,99524.84
2023-02-25T04:13:00.874Z,99534.84
2023-02-25T04:15:29.369Z,99345.06
2023-02-25T04:17:55.988Z,99546.75
2023-02-25T04:20:22.552Z,99552.31
2023-02-25T04:22:49.131Z,99549.31
2023-02-25T04:25:15.745Z,99533.03
2023-02-25T04:27:42.380Z,99555.19
2023-02-25T04:30:09.530Z,99558.75
2023-02-25T04:32:36.321Z,99557.06
2023-02-25T04:35:05.965Z,99420.63
2023-02-25T04:37:32.600Z,99568.38
2023-02-25T04:39:59.190Z,99571.50
2023-02-25T04:42:25.862Z,99575.78
2023-02-25T04:44:52.450Z,99576.56
2023-02-25T04:47:19.244Z,99321.81
2023-02-25T04:49:46.189Z,99403.25
2023-02-25T04:52:16.396Z,99673.31
2023-02-25T04:54:43.101Z,99562.47
2023-02-25T04:57:11.918Z,99484.94
2023-02-25T04:59:38.844Z,99602.56
2023-02-25T05:02:07.357Z,99575.44
2023-02-25T05:04:35.938Z,99598.91
2023-02-25T05:07:03.208Z,99638.84
2023-02-25T05:09:29.960Z,99612.03
2023-02-25T05:11:56.515Z,99614.41
2023-02-25T05:14:23.355Z,99553.16
2023-02-25T05:16:50.313Z,99620.97
2023-02-25T05:19:19.783Z,99621.22
2023-02-25T05:21:46.362Z,99641.69
2023-02-25T05:24:13.134Z,99638.00
2023-02-25T05:26:39.756Z,99638.84
2023-02-25T05:29:07.292Z,99638.16
2023-02-25T05:31:34.140Z,99545.16
2023-02-25T05:34:00.996Z,99648.72
2023-02-25T05:36:28.556Z,99650.59
2023-02-25T05:38:58.926Z,99661.38
2023-02-25T05:41:26.058Z,99702.53
2023-02-25T05:43:52.586Z,99666.34
2023-02-25T05:46:19.211Z,99671.91
2023-02-25T05:48:46.668Z,99679.25
2023-02-25T05:51:16.512Z,99671.78
2023-02-25T05:53:44.747Z,99679.16
2023-02-25T05:56:14.346Z,99682.22
2023-02-25T05:58:41.065Z,99691.94
2023-02-25T06:01:13.636Z,99693.03
2023-02-25T06:03:41.719Z,99699.00
2023-02-25T06:06:08.912Z,99698.47
2023-02-25T06:08:35.776Z,99705.56
2023-02-25T06:11:05.385Z,99716.78
2023-02-25T06:13:32.023Z,99718.19
2023-02-25T06:15:58.603Z,99696.84
2023-02-25T06:18:25.193Z,99724.63
2023-02-25T06:20:51.715Z,99729.03
2023-02-25T06:23:18.323Z,99738.31
2023-02-25T06:25:44.865Z,99729.94
2023-02-25T06:28:11.512Z,99741.25
2023-02-25T06:30:38.175Z,99744.59
2023-02-25T06:33:04.799Z,99739.47
2023-02-25T06:35:33.517Z,99744.84
2023-02-25T06:38:00.249Z,99742.34
2023-02-25T06:40:28.748Z,99746.31
2023-02-25T06:42:55.372Z,99608.41
2023-02-25T06:45:21.973Z,99742.94
2023-02-25T06:47:48.559Z,99723.22
2023-02-25T06:50:15.443Z,99754.22
2023-02-25T06:52:42.107Z,99757.59
2023-02-25T06:55:09.822Z,99699.06
2023-02-25T06:57:36.669Z,99651.97
2023-02-25T07:00:05.566Z,99774.44
2023-02-25T07:02:32.557Z,99782.19
2023-02-25T07:05:00.727Z,99800.75
2023-02-25T07:07:27.336Z,99799.34
2023-02-25T07:09:54.039Z,99794.88
2023-02-25T07:12:20.998Z,99685.31
2023-02-25T07:14:47.595Z,99804.34
2023-02-25T07:17:14.186Z,99743.16
2023-02-25T07:19:40.772Z,99754.81
2023-02-25T07:22:09.835Z,99819.31
2023-02-25T07:24:36.480Z,99815.56
2023-02-25T07:27:03.079Z,99812.16
2023-02-25T07:29:29.622Z,99818.56
2023-02-25T07:31:56.400Z,99816.25
2023-02-25T07:34:23.147Z,99769.53
2023-02-25T07:36:49.768Z,99813.09
2023-02-25T07:39:16.359Z,99829.59
2023-02-25T07:44:11.654Z,99830.19
2023-02-25T07:46:39.301Z,99824.97
2023-02-25T07:49:05.858Z,99666.00
2023-02-25T07:51:33.027Z,99841.16
2023-02-25T07:54:00.655Z,99851.41
2023-02-25T07:56:29.722Z,99851.06
2023-02-25T07:58:56.604Z,99710.50
2023-02-25T08:01:29.568Z,99852.19
2023-02-25T08:04:00.511Z,99853.22
2023-02-25T08:06:27.810Z,99853.16
2023-02-25T08:08:55.324Z,99838.66
2023-02-25T08:11:24.310Z,99567.34
2023-02-25T08:13:51.369Z,99865.47
2023-02-25T08:16:19.894Z,99869.78
2023-02-25T08:18:47.226Z,99792.78
2023-02-25T08:21:18.032Z,99876.88
2023-02-25T08:23:44.720Z,99889.81
2023-02-25T08:26:11.466Z,99889.88
2023-02-25T08:28:38.135Z,99840.00
2023-02-25T08:31:07.705Z,99891.59
2023-02-25T08:33:34.513Z,99728.84
2023-02-25T08:36:16.504Z,99977.72
2023-02-25T08:38:43.533Z,99915.25
2023-02-25T08:41:10.589Z,99916.53
2023-02-25T08:43:38.018Z,99912.97
2023-02-25T08:46:06.725Z,99781.41
2023-02-25T08:48:34.860Z,99906.22
2023-02-25T08:51:10.017Z,99912.19
2023-02-25T08:53:38.912Z,99911.41
2023-02-25T08:56:07.142Z,99860.75
2023-02-25T08:58:34.265Z,99929.06
2023-02-25T09:01:01.406Z,99936.81
2023-02-25T09:03:28.226Z,99926.41
2023-02-25T09:05:56.219Z,99926.00
2023-02-25T09:08:22.894Z,99751.66
2023-02-25T09:10:50.824Z,99931.75
2023-02-25T09:13:17.916Z,99649.91
2023-02-25T09:15:44.483Z,99856.91
2023-02-25T09:18:13.912Z,99956.44
2023-02-25T09:20:40.441Z,99934.22
2023-02-25T09:23:07.237Z,99954.66
2023-02-25T09:25:33.779Z,99967.66
2023-02-25T09:28:00.757Z,99810.94
2023-02-25T09:30:27.320Z,99966.16
2023-02-25T09:32:54.170Z,99823.38
2023-02-25T09:35:20.786Z,99830.03
2023-02-25T09:37:47.720Z,99872.34
2023-02-25T09:40:22.730Z,99980.16
2023-02-25T09:43:19.846Z,99977.06
2023-02-25T09:45:49.829Z,99987.78
2023-02-25T09:48:26.390Z,99982.91
2023-02-25T09:51:03.845Z,99981.78
2023-02-25T09:53:30.456Z,100007.56
2023-02-25T09:55:57.182Z,100014.84
2023-02-25T09:58:31.313Z,99877.06
2023-02-25T10:01:06.003Z,99990.00
2023-02-25T10:03:53.381Z,99985.53
2023-02-25T10:06:36.132Z,99928.50
2023-02-25T10:09:18.782Z,99983.69
2023-02-25T10:12:00.741Z,99987.31
2023-02-25T10:14:31.240Z,99997.72
2023-02-25T10:17:08.997Z,99957.91
2023-02-25T10:19:48.244Z,99994.09
2023-02-25T10:22:34.523Z,100009.75
2023-02-25T10:25:12.018Z,99983.00
2023-02-25T10:27:44.129Z,99992.44
2023-02-25T10:30:48.413Z,100001.88
2023-02-25T10:33:26.706Z,100009.81
2023-02-25T10:36:01.138Z,100007.84
2023-02-25T10:38:27.756Z,99997.72
2023-02-25T10:40:57.913Z,100022.50
2023-02-25T10:43:26.724Z,99961.22
2023-02-25T10:46:01.427Z,100025.69
2023-02-25T10:48:29.259Z,99956.78
2023-02-25T10:51:15.177Z,99899.69
2023-02-25T10:54:06.869Z,99956.47
2023-02-25T10:56:39.891Z,99925.44
2023-02-25T10:59:28.416Z,100040.94
2023-02-25T11:01:58.105Z,100036.56
2023-02-25T11:04:37.510Z,100049.66
2023-02-25T11:07:34.114Z,99991.75
2023-02-25T11:10:22.067Z,100028.72
2023-02-25T11:12:54.224Z,100050.03
2023-02-25T11:15:45.244Z,100049.00
2023-02-25T11:18:23.122Z,100059.00
2023-02-25T11:20:54.172Z,100047.31
2023-02-25T11:23:28.535Z,100077.13
2023-02-25T11:25:55.738Z,99911.66
2023-02-25T11:28:25.279Z,100043.66
2023-02-25T11:30:52.081Z,100052.56
2023-02-25T11:33:30.913Z,100065.16
2023-02-25T11:35:59.996Z,100003.97
2023-02-25T11:38:32.242Z,100060.63
2023-02-25T11:40:59.228Z,100031.63
2023-02-25T11:43:34.081Z,100057.50
2023-02-25T11:46:11.980Z,100061.13
2023-02-25T11:48:53.881Z,100063.00
2023-02-25T11:51:28.755Z,100068.47
2023-02-25T11:54:14.326Z,100070.25
2023-02-25T11:56:48.649Z,99905.66
2023-02-25T11:59:32.458Z,100087.22
2023-02-25T12:02:33.504Z,100065.47
2023-02-25T12:05:27.938Z,100067.34
2023-02-25T12:08:33.402Z,100072.06
2023-02-25T12:11:54.117Z,100067.06
2023-02-25T12:14:54.243Z,100063.44
2023-02-25T12:17:41.616Z,99713.94
2023-02-25T12:20:50.202Z,100064.91
2023-02-25T12:23:40.341Z,99553.06
2023-02-25T12:26:36.829Z,100088.50
2023-02-25T12:29:25.133Z,100075.41
2023-02-25T12:31:58.190Z,100083.47
2023-02-25T12:34:40.826Z,99850.59
2023-02-25T12:37:29.053Z,100078.97
2023-02-25T12:40:46.706Z,100077.25
2023-02-25T12:43:31.645Z,99878.75
2023-02-25T12:46:21.478Z,100073.94
2023-02-25T12:49:02.981Z,100082.09
2023-02-25T12:51:46.104Z,100102.56
2023-02-25T12:54:38.911Z,100100.66
2023-02-25T12:57:17.633Z,100066.53
2023-02-25T13:00:09.529Z,100087.53
2023-02-25T13:02:59.213Z,100077.59
2023-02-25T13:05:53.574Z,100077.06
2023-02-25T13:09:16.901Z,100089.38
2023-02-25T13:12:10.988Z,100037.34
2023-02-25T13:14:45.445Z,100091.38
2023-02-25T13:17:25.209Z,100015.78
2023-02-25T13:20:19.914Z,100089.28
2023-02-25T13:23:27.906Z,100098.44
2023-02-25T13:25:57.369Z,100105.56
2023-02-25T13:29:01.893Z,100114.91
2023-02-25T13:31:39.540Z,100109.81
2023-02-25T13:34:24.704Z,100103.81
2023-02-25T13:37:12.874Z,100114.56
2023-02-25T13:40:26.999Z,100120.94
2023-02-25T13:43:09.161Z,100130.94
2023-02-25T13:45:54.288Z,100125.03
2023-02-25T13:48:49.973Z,100136.22
2023-02-25T13:51:42.173Z,100110.47
2023-02-25T13:54:41.448Z,99976.84
2023-02-25T13:57:45.115Z,100141.31
2023-02-25T14:00:39.394Z,100148.56
2023-02-25T14:03:43.033Z,100137.16
2023-02-25T14:06:31.601Z,100138.31
2023-02-25T14:09:22.758Z,100140.84
2023-02-25T14:12:00.488Z,100163.50
2023-02-25T14:15:18.454Z,100148.13
2023-02-25T14:18:06.444Z,100148.47
2023-02-25T14:21:01.214Z,100155.38
2023-02-25T14:23:49.158Z,100157.84
2023-02-25T14:26:40.437Z,100166.84
2023-02-25T14:29:31.627Z,100168.06
2023-02-25T14:32:31.605Z,100167.50
2023-02-25T14:35:15.206Z,100171.66
2023-02-25T14:38:00.460Z,100178.22
2023-02-25T14:40:56.500Z,99899.41
2023-02-25T14:43:30.569Z,100184.81
2023-02-25T14:46:04.364Z,100186.19
2023-02-25T14:48:46.306Z,100176.31
2023-02-25T14:51:31.196Z,100193.63
2023-02-25T14:54:12.704Z,100186.53
2023-02-25T14:56:48.958Z,100194.94
2023-02-25T15:00:09.687Z,100207.72
2023-02-25T15:03:02.681Z,100217.44
2023-02-25T15:05:38.328Z,100221.69
2023-02-25T15:08:19.473Z,100134.34
2023-02-25T15:10:55.013Z,100224.09
2023-02-25T15:13:30.649Z,100223.69
2023-02-25T15:16:29.004Z,100224.53
2023-02-25T15:19:39.063Z,100234.63
2023-02-25T15:22:26.595Z,100233.47
2023-02-25T15:25:14.188Z,100244.19
2023-02-25T15:27:56.684Z,100217.41
2023-02-25T15:30:26.265Z,100246.38
2023-02-25T15:33:24.416Z,100287.69
2023-02-25T15:35:55.292Z,100269.66
2023-02-25T15:38:39.882Z,100278.16
2023-02-25T15:41:37.374Z,100283.72
2023-02-25T15:44:12.884Z,100274.00
2023-02-25T15:46:49.608Z,100276.63
2023-02-25T15:49:20.075Z,100288.19
2023-02-25T15:51:58.342Z,100247.28
2023-02-25T15:54:30.785Z,100284.97
2023-02-25T15:57:09.489Z,100294.22
2023-02-25T15:59:42.248Z,100302.31
2023-02-25T16:02:27.061Z,100310.47
2023-02-25T16:04:55.872Z,100176.25
2023-02-25T16:07:29.517Z,100193.94
2023-02-25T16:10:01.276Z,100315.59
2023-02-25T16:12:29.686Z,100230.22
2023-02-25T16:14:58.926Z,100228.25
2023-02-25T16:17:35.619Z,100325.88
2023-02-25T16:20:30.757Z,100330.81
2023-02-25T16:22:59.892Z,100300.16
2023-02-25T16:25:53.167Z,100339.38
2023-02-25T16:29:06.421Z,100174.19
2023-02-25T16:31:38.998Z,100345.16
2023-02-25T16:34:15.956Z,100348.31
2023-02-25T16:37:01.452Z,100359.97
2023-02-25T16:39:30.181Z,100360.13
2023-02-25T16:42:02.797Z,100355.19
2023-02-25T16:44:35.639Z,100358.09
2023-02-25T16:47:03.400Z,100358.69
2023-02-25T16:49:40.537Z,100367.41
2023-02-25T16:52:10.712Z,100337.38
2023-02-25T16:54:38.514Z,100366.19
2023-02-25T16:57:07.230Z,100371.00
2023-02-25T16:59:36.697Z,100370.28
2023-02-25T17:02:22.145Z,100374.44
2023-02-25T17:04:51.543Z,100383.38
2023-02-25T17:07:18.231Z,100388.00
2023-02-25T17:10:00.740Z,100396.19
2023-02-25T17:12:47.573Z,100406.00
2023-02-25T17:15:23.129Z,100410.09
2023-02-25T17:17:54.689Z,100404.25
2023-02-25T17:20:24.593Z,100406.56
2023-02-25T17:22:51.869Z,100408.59
2023-02-25T17:25:19.806Z,100400.13
2023-02-25T17:27:49.966Z,100457.88
2023-02-25T17:30:38.464Z,100427.91
2023-02-25T17:33:05.942Z,100433.00
2023-02-25T17:35:35.026Z,100576.22
2023-02-25T17:38:02.481Z,100440.69
2023-02-25T17:40:29.699Z,100268.31
2023-02-25T17:43:15.825Z,100445.22
2023-02-25T17:45:57.427Z,100452.28
2023-02-25T17:48:27.573Z,100453.91
2023-02-25T17:51:03.823Z,100458.28
2023-02-25T17:53:48.389Z,100478.47
2023-02-25T17:56:17.830Z,100474.63
2023-02-25T17:58:45.705Z,100476.03
2023-02-25T18:01:23.151Z,100476.38
2023-02-25T18:03:51.431Z,100455.72
2023-02-25T18:06:31.873Z,100492.16
2023-02-25T18:09:03.027Z,100500.53
2023-02-25T18:11:36.478Z,100495.91
2023-02-25T18:14:24.275Z,100437.13
2023-02-25T18:16:52.722Z,100394.91
2023-02-25T18:19:37.542Z,100507.19
2023-02-25T18:22:06.156Z,100457.59
2023-02-25T18:24:37.676Z,100519.38
2023-02-25T18:27:22.208Z,100512.94
2023-02-25T18:29:48.986Z,100502.09
2023-02-25T18:32:16.097Z,100501.34
2023-02-25T18:34:42.866Z,100518.31
2023-02-25T18:37:18.291Z,100496.97
2023-02-25T18:39:47.468Z,100488.69
2023-02-25T18:42:16.294Z,100483.50
2023-02-25T18:44:44.542Z,100475.72
2023-02-25T18:47:11.185Z,100528.81
2023-02-25T18:49:37.851Z,100534.72
2023-02-25T18:52:06.540Z,100537.81
2023-02-25T18:54:33.190Z,100516.72
2023-02-25T18:56:59.748Z,100538.13
2023-02-25T18:59:26.461Z,100501.63
2023-02-25T19:01:53.256Z,100547.03
2023-02-25T19:04:20.486Z,100552.00
2023-02-25T19:06:47.390Z,100500.66
2023-02-25T19:09:14.044Z,100557.66
2023-02-25T19:11:40.989Z,100545.25
2023-02-25T19:14:08.301Z,100350.72
2023-02-25T19:16:35.090Z,100567.69
2023-02-25T19:19:02.045Z,100473.81
2023-02-25T19:21:28.644Z,100571.28
2023-02-25T19:23:55.453Z,100582.53
2023-02-25T19:26:22.888Z,100585.75
2023-02-25T19:28:50.094Z,100407.56
2023-02-25T19:31:18.001Z,100591.03
2023-02-25T19:33:45.783Z,100598.06
2023-02-25T19:36:13.203Z,100623.34
2023-02-25T19:38:40.217Z,100518.41
2023-02-25T19:41:06.957Z,100609.06
2023-02-25T19:43:34.715Z,100539.66
2023-02-25T19:46:02.459Z,100605.16
2023-02-25T19:48:29.042Z,100611.50
2023-02-25T19:50:56.336Z,100612.81
2023-02-25T19:53:23.065Z,100616.53
2023-02-25T19:55:49.982Z,100587.25
2023-02-25T19:58:16.696Z,100622.72
2023-02-25T20:00:46.307Z,100620.72
2023-02-25T20:03:15.271Z,100610.31
2023-02-25T20:05:42.751Z,100632.22
2023-02-25T20:08:09.981Z,100634.91
2023-02-25T20:10:36.583Z,100636.56
2023-02-25T20:13:03.378Z,100636.63
2023-02-25T20:15:29.994Z,100639.38
2023-02-25T20:17:57.519Z,100602.16
2023-02-25T20:20:24.314Z,100659.50
2023-02-25T20:22:51.771Z,100517.16
2023-02-25T20:25:18.579Z,100647.66
2023-02-25T20:27:45.187Z,100675.41
2023-02-25T20:30:15.156Z,100581.78
2023-02-25T20:32:46.291Z,100676.66
2023-02-25T20:35:26.118Z,100660.13
2023-02-25T20:38:25.403Z,100638.91
2023-02-25T20:40:52.158Z,100661.06
2023-02-25T20:43:19.018Z,100681.59
2023-02-25T20:45:45.926Z,100670.31
2023-02-25T20:48:32.819Z,100676.56
2023-02-25T20:51:00.110Z,100683.97
2023-02-25T20:53:26.922Z,100583.28
2023-02-25T20:55:56.671Z,100697.59
2023-02-25T20:58:23.370Z,100698.47
2023-02-25T21:00:50.182Z,100699.19
2023-02-25T21:03:16.795Z,100548.00
2023-02-25T21:05:43.566Z,100704.06
2023-02-25T21:08:10.552Z,100561.84
2023-02-25T21:10:37.176Z,100563.88
2023-02-25T21:13:03.729Z,100716.94
2023-02-25T21:15:30.468Z,100585.72
2023-02-25T21:17:57.143Z,100717.19
2023-02-25T21:20:23.882Z,100639.88
2023-02-25T21:22:50.636Z,100684.53
2023-02-25T21:25:17.441Z,100719.97
2023-02-25T21:27:44.512Z,100724.94
2023-02-25T21:30:11.696Z,100660.59
2023-02-25T21:32:38.400Z,100739.88
2023-02-25T21:35:05.472Z,100737.31
2023-02-25T21:37:32.113Z,100519.81
2023-02-25T21:39:58.799Z,100580.84
2023-02-25T21:42:25.401Z,100697.00
2023-02-25T21:44:52.088Z,100730.53
2023-02-25T21:47:18.819Z,100725.25
2023-02-25T21:49:45.628Z,100729.41
2023-02-25T21:52:12.320Z,100729.59
2023-02-25T21:54:38.865Z,100726.63
2023-02-25T21:57:06.539Z,100744.78
2023-02-25T21:59:33.165Z,100733.75
2023-02-25T22:01:59.933Z,100697.97
2023-02-25T22:04:26.506Z,100680.94
2023-02-25T22:06:53.168Z,100755.03
2023-02-25T22:09:20.045Z,100788.78
2023-02-25T22:11:46.925Z,100762.78
2023-02-25T22:14:13.536Z,100761.81
2023-02-25T22:16:40.944Z,100735.78
2023-02-25T22:19:07.698Z,100769.56
2023-02-25T22:21:36.672Z,100702.78
2023-02-25T22:24:04.749Z,100772.97
2023-02-25T22:26:33.597Z,100638.84
2023-02-25T22:29:02.957Z,100772.59
2023-02-25T22:31:30.201Z,100689.06
2023-02-25T22:33:57.623Z,100778.53
2023-02-25T22:36:25.207Z,100771.75
2023-02-25T22:38:52.229Z,100725.72
2023-02-25T22:41:22.227Z,100782.84
2023-02-25T22:43:49.000Z,100752.81
2023-02-25T22:46:20.143Z,100793.84
2023-02-25T22:48:49.186Z,100791.94
2023-02-25T22:51:30.304Z,100791.59
2023-02-25T22:53:57.377Z,100797.28
2023-02-25T22:56:25.213Z,100766.09
2023-02-25T22:58:52.277Z,100804.56
2023-02-25T23:01:21.233Z,100764.22
2023-02-25T23:03:48.524Z,100595.44
2023-02-25T23:06:17.279Z,100804.66
2023-02-25T23:08:44.239Z,100797.66
2023-02-25T23:11:15.085Z,100784.44
2023-02-25T23:13:46.077Z,100646.28
2023-02-25T23:16:22.139Z,100755.03
2023-02-25T23:18:49.176Z,100815.44
2023-02-25T23:21:19.165Z,100808.13
2023-02-25T23:23:48.000Z,100681.19
2023-02-25T23:26:17.385Z,100786.97
2023-02-25T23:28:44.376Z,100821.97
2023-02-25T23:31:22.346Z,100820.09
2023-02-25T23:33:49.123Z,100820.84
2023-02-25T23:36:16.085Z,100795.53
2023-02-25T23:38:42.758Z,100823.09
2023-02-25T23:41:09.384Z,100822.28
2023-02-25T23:43:35.973Z,100832.53
2023-02-25T23:46:06.151Z,100833.38
2023-02-25T23:48:32.829Z,100832.88
2023-02-25T23:51:08.871Z,100839.19
2023-02-25T23:53:36.420Z,100839.66
2023-02-25T23:56:05.402Z,100809.78
2023-02-25T23:58:32.673Z,100716.38
